createdAt,value
2023-03-17T00:01:18.748Z,97762.20
2023-03-17T00:03:47.789Z,97763.00
2023-03-17T00:06:21.317Z,97763.80
2023-03-17T00:08:47.936Z,97756.80
2023-03-17T00:11:17.583Z,97752.00
2023-03-17T00:13:46.210Z,97749.80
2023-03-17T00:16:27.164Z,97751.20
2023-03-17T00:18:57.562Z,97752.60
2023-03-17T00:21:31.337Z,97744.00
2023-03-17T00:23:59.768Z,97747.20
2023-03-17T00:26:28.536Z,97743.80
2023-03-17T00:28:55.688Z,97737.80
2023-03-17T00:31:27.712Z,97737.60
2023-03-17T00:33:55.959Z,97736.20
2023-03-17T00:36:25.969Z,97731.40
2023-03-17T00:38:52.742Z,97727.20
2023-03-17T00:41:20.648Z,97729.20
2023-03-17T00:43:47.391Z,97723.00
2023-03-17T00:46:21.735Z,97721.00
2023-03-17T00:48:48.800Z,97724.40
2023-03-17T00:51:16.544Z,97720.00
2023-03-17T00:53:44.224Z,97718.00
2023-03-17T00:56:19.113Z,97715.20
2023-03-17T00:58:47.698Z,97715.40
2023-03-17T01:01:16.082Z,97713.60
2023-03-17T01:03:42.967Z,97705.60
2023-03-17T01:06:13.797Z,97706.00
2023-03-17T01:08:42.077Z,97702.60
2023-03-17T01:11:18.605Z,97694.20
2023-03-17T01:13:48.095Z,97688.60
2023-03-17T01:16:15.684Z,97688.20
2023-03-17T01:18:43.737Z,97685.80
2023-03-17T01:21:10.524Z,97678.80
2023-03-17T01:23:37.490Z,97677.60
2023-03-17T01:26:04.813Z,97679.20
2023-03-17T01:28:31.465Z,97680.80
2023-03-17T01:30:58.748Z,97675.80
2023-03-17T01:33:25.713Z,97668.20
2023-03-17T01:35:52.554Z,97665.00
2023-03-17T01:38:19.247Z,97669.40
2023-03-17T01:40:52.204Z,97670.60
2023-03-17T01:43:24.805Z,97662.80
2023-03-17T01:46:22.025Z,97664.60
2023-03-17T01:49:33.222Z,97664.40
2023-03-17T01:52:07.622Z,97670.80
2023-03-17T01:54:50.495Z,97674.20
2023-03-17T01:57:28.663Z,97665.20
2023-03-17T02:00:12.638Z,97659.80
2023-03-17T02:02:46.955Z,97659.60
2023-03-17T02:05:17.967Z,97654.00
2023-03-17T02:07:45.140Z,97649.40
2023-03-17T02:10:15.679Z,97646.40
2023-03-17T02:12:47.936Z,97644.00
2023-03-17T02:15:15.456Z,97641.40
2023-03-17T02:17:42.521Z,97636.40
2023-03-17T02:20:32.766Z,97636.40
2023-03-17T02:23:01.118Z,97633.00
2023-03-17T02:25:30.823Z,97635.00
2023-03-17T02:28:06.599Z,97639.60
2023-03-17T02:30:35.212Z,97635.40
2023-03-17T02:33:03.615Z,97626.40
2023-03-17T02:35:31.485Z,97624.40
2023-03-17T02:37:58.256Z,97613.80
2023-03-17T02:40:25.047Z,97615.60
2023-03-17T02:42:51.963Z,97606.80
2023-03-17T02:45:18.714Z,97609.20
2023-03-17T02:47:45.974Z,97609.20
2023-03-17T02:50:22.925Z,97608.80
2023-03-17T02:52:50.736Z,97610.80
2023-03-17T02:55:17.853Z,97605.80
2023-03-17T02:57:44.682Z,97605.40
2023-03-17T03:00:14.263Z,97606.20
2023-03-17T03:02:41.412Z,97603.00
2023-03-17T03:05:09.641Z,97605.80
2023-03-17T03:07:36.675Z,97604.60
2023-03-17T03:10:04.099Z,97606.60
2023-03-17T03:12:30.750Z,97602.20
2023-03-17T03:14:57.341Z,97594.00
2023-03-17T03:17:24.189Z,97600.40
2023-03-17T03:19:50.774Z,97597.20
2023-03-17T03:22:17.367Z,97604.80
2023-03-17T03:24:43.973Z,97596.40
2023-03-17T03:27:10.947Z,97598.60
2023-03-17T03:29:38.282Z,97597.00
2023-03-17T03:32:05.578Z,97601.80
2023-03-17T03:34:32.242Z,97602.20
2023-03-17T03:36:58.823Z,97600.20
2023-03-17T03:39:25.714Z,97603.20
2023-03-17T03:41:52.300Z,97606.60
2023-03-17T03:44:18.937Z,97602.20
2023-03-17T03:46:45.823Z,97598.40
2023-03-17T03:49:12.540Z,97597.00
2023-03-17T03:51:39.092Z,97588.40
2023-03-17T03:54:05.810Z,97585.20
2023-03-17T03:56:32.968Z,97575.20
2023-03-17T03:59:01.097Z,97572.20
2023-03-17T04:01:28.324Z,97572.60
2023-03-17T04:03:54.978Z,97569.20
2023-03-17T04:06:21.699Z,97567.00
2023-03-17T04:08:48.315Z,97567.60
2023-03-17T04:11:15.467Z,97562.60
2023-03-17T04:13:42.063Z,97558.80
2023-03-17T04:16:09.141Z,97558.80
2023-03-17T04:18:36.296Z,97559.40
2023-03-17T04:21:03.093Z,97563.80
2023-03-17T04:23:31.442Z,97554.00
2023-03-17T04:25:58.484Z,97555.80
2023-03-17T04:28:25.094Z,97551.20
2023-03-17T04:30:51.811Z,97555.40
2023-03-17T04:33:20.291Z,97552.80
2023-03-17T04:35:47.218Z,97553.40
2023-03-17T04:38:14.342Z,97550.40
2023-03-17T04:40:41.593Z,97549.80
2023-03-17T04:43:10.282Z,97547.00
2023-03-17T04:45:37.455Z,97551.20
2023-03-17T04:48:05.248Z,97552.80
2023-03-17T04:50:33.391Z,97559.60
2023-03-17T04:53:00.167Z,97562.20
2023-03-17T04:55:27.629Z,97570.00
2023-03-17T04:57:54.287Z,97576.40
2023-03-17T05:00:21.376Z,97575.80
2023-03-17T05:02:48.018Z,97577.80
2023-03-17T05:05:14.601Z,97582.00
2023-03-17T05:07:41.872Z,97580.20
2023-03-17T05:10:09.877Z,97587.40
2023-03-17T05:12:36.415Z,97592.60
2023-03-17T05:15:05.271Z,97592.40
2023-03-17T05:17:31.861Z,97589.40
2023-03-17T05:19:58.433Z,97589.00
2023-03-17T05:22:25.062Z,97590.80
2023-03-17T05:24:51.633Z,97586.00
2023-03-17T05:27:18.247Z,97583.00
2023-03-17T05:29:44.874Z,97575.20
2023-03-17T05:32:11.676Z,97580.20
2023-03-17T05:34:38.277Z,97582.20
2023-03-17T05:37:04.885Z,97578.00
2023-03-17T05:39:32.880Z,97578.40
2023-03-17T05:41:59.436Z,97574.00
2023-03-17T05:44:26.237Z,97574.80
2023-03-17T05:46:52.860Z,97574.20
2023-03-17T05:49:20.326Z,97573.80
2023-03-17T05:51:47.534Z,97562.60
2023-03-17T05:54:14.140Z,97560.20
2023-03-17T05:56:42.730Z,97551.20
2023-03-17T05:59:10.683Z,97549.40
2023-03-17T06:01:37.337Z,97546.20
2023-03-17T06:04:04.552Z,97546.80
2023-03-17T06:06:31.185Z,97539.00
2023-03-17T06:08:58.131Z,97538.00
2023-03-17T06:11:24.739Z,97539.40
2023-03-17T06:13:52.104Z,97539.00
2023-03-17T06:16:19.851Z,97537.60
2023-03-17T06:18:46.544Z,97531.60
2023-03-17T06:21:14.324Z,97532.00
2023-03-17T06:23:41.040Z,97527.00
2023-03-17T06:26:07.678Z,97533.20
2023-03-17T06:28:34.418Z,97529.60
2023-03-17T06:31:01.172Z,97533.80
2023-03-17T06:33:28.348Z,97534.20
2023-03-17T06:35:54.967Z,97528.00
2023-03-17T06:38:21.886Z,97521.80
2023-03-17T06:40:48.493Z,97519.40
2023-03-17T06:43:15.117Z,97520.00
2023-03-17T06:45:42.151Z,97527.00
2023-03-17T06:48:09.356Z,97525.20
2023-03-17T06:50:36.295Z,97518.80
2023-03-17T06:53:03.671Z,97521.40
2023-03-17T06:55:32.014Z,97522.60
2023-03-17T06:57:59.095Z,97523.60
2023-03-17T07:00:27.677Z,97527.80
2023-03-17T07:02:54.336Z,97532.00
2023-03-17T07:05:20.947Z,97534.00
2023-03-17T07:07:47.806Z,97532.60
2023-03-17T07:10:15.960Z,97533.80
2023-03-17T07:12:42.977Z,97533.20
2023-03-17T07:15:12.530Z,97531.20
2023-03-17T07:17:39.204Z,97531.20
2023-03-17T07:20:07.113Z,97531.40
2023-03-17T07:22:33.777Z,97523.80
2023-03-17T07:25:00.369Z,97512.20
2023-03-17T07:27:27.258Z,97513.00
2023-03-17T07:29:53.947Z,97507.60
2023-03-17T07:32:20.700Z,97512.20
2023-03-17T07:34:47.560Z,97509.40
2023-03-17T07:37:14.629Z,97512.60
2023-03-17T07:39:41.998Z,97506.80
2023-03-17T07:42:14.851Z,97517.00
2023-03-17T07:44:42.160Z,97522.60
2023-03-17T07:47:11.433Z,97526.00
2023-03-17T07:49:42.009Z,97525.20
2023-03-17T07:52:11.219Z,97527.00
2023-03-17T07:54:42.257Z,97525.20
2023-03-17T07:57:09.600Z,97524.80
2023-03-17T07:59:36.484Z,97529.60
2023-03-17T08:02:03.857Z,97530.80
2023-03-17T08:04:30.776Z,97535.00
2023-03-17T08:06:57.668Z,97533.20
2023-03-17T08:09:24.553Z,97531.40
2023-03-17T08:11:51.612Z,97522.80
2023-03-17T08:14:18.540Z,97516.40
2023-03-17T08:16:45.276Z,97511.00
2023-03-17T08:19:12.266Z,97500.20
2023-03-17T08:21:38.916Z,97495.80
2023-03-17T08:24:06.642Z,97498.20
2023-03-17T08:26:34.145Z,97495.80
2023-03-17T08:29:01.549Z,97496.00
2023-03-17T08:31:28.579Z,97493.00
2023-03-17T08:33:57.303Z,97490.20
2023-03-17T08:36:24.700Z,97497.80
2023-03-17T08:38:52.598Z,97499.00
2023-03-17T08:41:24.663Z,97503.60
2023-03-17T08:43:51.754Z,97498.00
2023-03-17T08:46:30.516Z,97500.60
2023-03-17T08:48:59.613Z,97497.60
2023-03-17T08:51:31.259Z,97498.60
2023-03-17T08:53:59.837Z,97501.00
2023-03-17T08:56:27.550Z,97501.20
2023-03-17T08:58:54.474Z,97505.80
2023-03-17T09:01:23.071Z,97495.40
2023-03-17T09:03:53.356Z,97490.80
2023-03-17T09:06:20.203Z,97486.60
2023-03-17T09:08:47.629Z,97479.80
2023-03-17T09:11:18.319Z,97484.20
2023-03-17T09:13:47.523Z,97484.20
2023-03-17T09:16:16.284Z,97485.60
2023-03-17T09:18:43.772Z,97484.00
2023-03-17T09:21:13.122Z,97479.00
2023-03-17T09:23:41.138Z,97478.40
2023-03-17T09:26:09.023Z,97478.80
2023-03-17T09:28:36.276Z,97478.40
2023-03-17T09:31:06.342Z,97474.40
2023-03-17T09:33:33.348Z,97472.20
2023-03-17T09:36:00.626Z,97474.20
2023-03-17T09:38:28.380Z,97472.60
2023-03-17T09:41:12.167Z,97468.80
2023-03-17T09:44:12.690Z,97464.20
2023-03-17T09:47:10.296Z,97467.40
2023-03-17T09:49:49.640Z,97474.00
2023-03-17T09:52:23.081Z,97474.20
2023-03-17T09:54:50.305Z,97479.20
2023-03-17T09:57:26.375Z,97486.40
2023-03-17T10:00:01.453Z,97481.20
2023-03-17T10:02:32.657Z,97476.00
2023-03-17T10:05:32.380Z,97474.60
2023-03-17T10:08:28.880Z,97478.00
2023-03-17T10:11:36.318Z,97489.00
2023-03-17T10:14:23.749Z,97490.00
2023-03-17T10:17:16.582Z,97485.40
2023-03-17T10:19:56.720Z,97484.20
2023-03-17T10:22:56.001Z,97477.20
2023-03-17T10:25:44.926Z,97475.40
2023-03-17T10:28:30.668Z,97473.00
2023-03-17T10:31:32.890Z,97475.40
2023-03-17T10:34:18.686Z,97479.00
2023-03-17T10:36:55.294Z,97477.80
2023-03-17T10:39:24.692Z,97475.00
2023-03-17T10:42:07.685Z,97475.00
2023-03-17T10:44:59.051Z,97472.00
2023-03-17T10:47:38.264Z,97468.60
2023-03-17T10:50:30.486Z,97463.40
2023-03-17T10:53:08.337Z,97458.60
2023-03-17T10:55:37.560Z,97459.60
2023-03-17T10:58:07.765Z,97452.40
2023-03-17T11:00:38.566Z,97456.00
2023-03-17T11:03:18.433Z,97451.20
2023-03-17T11:06:14.374Z,97441.60
2023-03-17T11:08:46.748Z,97437.00
2023-03-17T11:11:49.097Z,97435.60
2023-03-17T11:14:19.398Z,97434.60
2023-03-17T11:17:13.470Z,97427.80
2023-03-17T11:20:15.450Z,97426.60
2023-03-17T11:22:57.279Z,97418.60
2023-03-17T11:25:27.180Z,97419.60
2023-03-17T11:28:19.025Z,97417.20
2023-03-17T11:31:06.543Z,97415.00
2023-03-17T11:34:20.011Z,97410.20
2023-03-17T11:37:11.711Z,97402.40
2023-03-17T11:40:10.671Z,97393.80
2023-03-17T11:43:01.002Z,97388.40
2023-03-17T11:45:37.495Z,97380.20
2023-03-17T11:48:22.653Z,97375.20
2023-03-17T11:51:02.539Z,97367.00
2023-03-17T11:54:05.083Z,97357.40
2023-03-17T11:56:51.771Z,97344.60
2023-03-17T11:59:39.374Z,97339.40
2023-03-17T12:02:15.050Z,97342.20
2023-03-17T12:05:13.377Z,97331.40
2023-03-17T12:07:47.964Z,97323.40
2023-03-17T12:10:41.542Z,97316.80
2023-03-17T12:13:23.316Z,97310.80
2023-03-17T12:16:05.472Z,97307.60
2023-03-17T12:18:37.591Z,97307.80
2023-03-17T12:21:43.138Z,97307.40
2023-03-17T12:24:40.359Z,97306.20
2023-03-17T12:27:15.884Z,97303.80
2023-03-17T12:29:51.695Z,97307.80
2023-03-17T12:32:26.200Z,97308.20
2023-03-17T12:34:59.838Z,97297.60
2023-03-17T12:37:30.001Z,97293.00
2023-03-17T12:40:26.192Z,97290.40
2023-03-17T12:43:22.909Z,97289.20
2023-03-17T12:46:55.887Z,97282.40
2023-03-17T12:49:30.460Z,97282.20
2023-03-17T12:52:13.449Z,97276.80
2023-03-17T12:54:47.914Z,97279.80
2023-03-17T12:57:28.724Z,97285.80
2023-03-17T13:00:29.707Z,97282.20
2023-03-17T13:03:23.837Z,97279.20
2023-03-17T13:06:02.154Z,97277.60
2023-03-17T13:08:56.337Z,97273.80
2023-03-17T13:11:47.470Z,97271.20
2023-03-17T13:14:27.257Z,97270.20
2023-03-17T13:17:25.603Z,97262.00
2023-03-17T13:20:09.840Z,97266.20
2023-03-17T13:23:21.210Z,97257.20
2023-03-17T13:25:53.831Z,97252.00
2023-03-17T13:28:41.440Z,97247.20
2023-03-17T13:31:34.008Z,97250.60
2023-03-17T13:34:15.385Z,97240.40
2023-03-17T13:37:05.465Z,97236.20
2023-03-17T13:40:25.235Z,97230.20
2023-03-17T13:43:37.057Z,97227.00
2023-03-17T13:46:38.950Z,97226.20
2023-03-17T13:49:18.327Z,97225.00
2023-03-17T13:52:11.544Z,97217.20
2023-03-17T13:54:59.717Z,97219.20
2023-03-17T13:57:29.593Z,97213.80
2023-03-17T14:00:25.816Z,97209.80
2023-03-17T14:03:13.117Z,97203.40
2023-03-17T14:05:42.594Z,97211.00
2023-03-17T14:08:29.783Z,97203.00
2023-03-17T14:11:38.881Z,97199.20
2023-03-17T14:14:37.910Z,97200.00
2023-03-17T14:17:44.586Z,97196.40
2023-03-17T14:20:17.064Z,97194.20
2023-03-17T14:22:48.199Z,97194.20
2023-03-17T14:25:26.336Z,97188.00
2023-03-17T14:27:57.495Z,97184.40
2023-03-17T14:30:29.683Z,97188.60
2023-03-17T14:33:20.740Z,97187.60
2023-03-17T14:35:52.044Z,97182.00
2023-03-17T14:38:22.012Z,97182.80
2023-03-17T14:40:59.097Z,97184.60
2023-03-17T14:43:26.266Z,97179.60
2023-03-17T14:45:59.798Z,97177.60
2023-03-17T14:48:32.478Z,97170.80
2023-03-17T14:51:25.397Z,97169.60
2023-03-17T14:53:56.847Z,97170.20
2023-03-17T14:56:31.969Z,97169.20
2023-03-17T14:59:16.727Z,97165.00
2023-03-17T15:01:48.476Z,97171.20
2023-03-17T15:04:33.548Z,97160.00
2023-03-17T15:07:06.662Z,97164.80
2023-03-17T15:09:41.118Z,97167.60
2023-03-17T15:12:24.714Z,97175.80
2023-03-17T15:14:56.370Z,97167.00
2023-03-17T15:17:31.084Z,97173.40
2023-03-17T15:20:04.834Z,97175.20
2023-03-17T15:22:34.182Z,97171.00
2023-03-17T15:25:16.174Z,97175.00
2023-03-17T15:27:45.298Z,97174.40
2023-03-17T15:30:12.967Z,97179.40
2023-03-17T15:32:40.825Z,97177.60
2023-03-17T15:35:12.428Z,97170.40
2023-03-17T15:37:39.667Z,97170.80
2023-03-17T15:40:09.324Z,97172.40
2023-03-17T15:42:39.536Z,97170.60
2023-03-17T15:45:07.856Z,97169.40
2023-03-17T15:47:39.710Z,97167.80
2023-03-17T15:50:25.725Z,97165.80
2023-03-17T15:52:58.654Z,97167.80
2023-03-17T15:55:30.646Z,97167.40
2023-03-17T15:57:58.684Z,97167.80
2023-03-17T16:00:29.821Z,97167.00
2023-03-17T16:03:04.266Z,97168.40
2023-03-17T16:05:34.676Z,97164.60
2023-03-17T16:08:02.262Z,97158.40
2023-03-17T16:10:32.840Z,97157.60
2023-03-17T16:12:59.852Z,97160.80
2023-03-17T16:15:31.434Z,97159.20
2023-03-17T16:18:02.471Z,97157.80
2023-03-17T16:20:43.091Z,97146.80
2023-03-17T16:23:21.858Z,97153.40
2023-03-17T16:25:49.566Z,97151.40
2023-03-17T16:28:31.139Z,97154.20
2023-03-17T16:31:00.550Z,97155.60
2023-03-17T16:33:37.006Z,97155.20
2023-03-17T16:36:04.355Z,97163.40
2023-03-17T16:38:33.997Z,97162.40
2023-03-17T16:41:14.423Z,97164.80
2023-03-17T16:43:45.110Z,97155.80
2023-03-17T16:46:13.037Z,97160.00
2023-03-17T16:48:39.680Z,97171.40
2023-03-17T16:51:06.905Z,97167.60
2023-03-17T16:53:33.529Z,97169.20
2023-03-17T16:56:00.562Z,97168.00
2023-03-17T16:58:32.877Z,97162.00
2023-03-17T17:01:04.520Z,97161.20
2023-03-17T17:03:31.486Z,97162.80
2023-03-17T17:05:58.533Z,97160.40
2023-03-17T17:08:25.274Z,97163.80
2023-03-17T17:10:52.235Z,97164.40
2023-03-17T17:13:18.912Z,97165.20
2023-03-17T17:15:46.200Z,97172.20
2023-03-17T17:18:24.679Z,97178.20
2023-03-17T17:20:53.893Z,97176.40
2023-03-17T17:23:26.683Z,97177.40
2023-03-17T17:25:54.418Z,97173.20
2023-03-17T17:28:24.404Z,97171.80
2023-03-17T17:30:53.095Z,97171.20
2023-03-17T17:33:21.302Z,97174.40
2023-03-17T17:35:49.833Z,97168.80
2023-03-17T17:38:28.326Z,97155.40
2023-03-17T17:40:58.036Z,97160.80
2023-03-17T17:43:25.460Z,97161.60
2023-03-17T17:45:53.499Z,97159.20
2023-03-17T17:48:22.609Z,97164.80
2023-03-17T17:50:50.692Z,97162.00
2023-03-17T17:53:18.047Z,97163.20
2023-03-17T17:55:47.821Z,97167.40
2023-03-17T17:58:25.312Z,97163.40
2023-03-17T18:00:55.285Z,97165.60
2023-03-17T18:03:25.167Z,97165.40
2023-03-17T18:05:56.646Z,97165.00
2023-03-17T18:08:25.511Z,97161.00
2023-03-17T18:10:52.702Z,97162.60
2023-03-17T18:13:19.360Z,97161.80
2023-03-17T18:15:46.197Z,97163.80
2023-03-17T18:18:12.818Z,97159.60
2023-03-17T18:20:40.096Z,97161.00
2023-03-17T18:23:08.029Z,97158.80
2023-03-17T18:25:34.624Z,97158.00
2023-03-17T18:28:01.847Z,97156.20
2023-03-17T18:30:31.570Z,97156.00
2023-03-17T18:33:06.401Z,97149.80
2023-03-17T18:35:34.094Z,97150.40
2023-03-17T18:38:01.611Z,97149.60
2023-03-17T18:40:28.848Z,97145.40
2023-03-17T18:42:55.927Z,97143.80
2023-03-17T18:45:23.113Z,97140.00
2023-03-17T18:47:49.823Z,97144.80
2023-03-17T18:50:17.561Z,97141.20
2023-03-17T18:52:45.752Z,97136.00
2023-03-17T18:55:15.099Z,97131.60
2023-03-17T18:57:44.638Z,97134.60
2023-03-17T19:00:16.276Z,97134.60
2023-03-17T19:02:43.131Z,97131.80
2023-03-17T19:05:11.835Z,97131.40
2023-03-17T19:07:40.486Z,97131.00
2023-03-17T19:10:10.608Z,97131.20
2023-03-17T19:12:38.229Z,97120.20
2023-03-17T19:15:07.351Z,97116.20
2023-03-17T19:17:35.118Z,97116.20
2023-03-17T19:20:01.856Z,97119.00
2023-03-17T19:22:28.473Z,97124.80
2023-03-17T19:24:55.475Z,97122.60
2023-03-17T19:27:22.268Z,97119.20
2023-03-17T19:29:48.922Z,97117.00
2023-03-17T19:32:16.637Z,97119.80
2023-03-17T19:34:43.787Z,97121.00
2023-03-17T19:37:11.037Z,97126.60
2023-03-17T19:39:37.716Z,97128.40
2023-03-17T19:42:04.400Z,97127.80
2023-03-17T19:44:31.027Z,97128.80
2023-03-17T19:46:57.865Z,97125.60
2023-03-17T19:49:24.908Z,97128.20
2023-03-17T19:51:52.390Z,97123.40
2023-03-17T19:54:19.107Z,97123.80
2023-03-17T19:56:48.305Z,97121.80
2023-03-17T19:59:16.917Z,97124.20
2023-03-17T20:01:43.540Z,97126.20
2023-03-17T20:04:13.934Z,97129.00
2023-03-17T20:06:40.705Z,97117.60
2023-03-17T20:09:08.791Z,97115.00
2023-03-17T20:11:35.645Z,97114.80
2023-03-17T20:14:03.103Z,97115.40
2023-03-17T20:16:33.479Z,97129.40
2023-03-17T20:19:01.311Z,97127.20
2023-03-17T20:21:28.560Z,97134.20
2023-03-17T20:23:55.275Z,97129.80
2023-03-17T20:26:21.954Z,97130.00
2023-03-17T20:28:49.078Z,97125.00
2023-03-17T20:31:16.021Z,97127.00
2023-03-17T20:33:42.654Z,97121.60
2023-03-17T20:36:10.189Z,97118.40
2023-03-17T20:38:38.818Z,97116.00
2023-03-17T20:41:12.823Z,97116.40
2023-03-17T20:43:41.727Z,97115.80
2023-03-17T20:46:15.588Z,97117.60
2023-03-17T20:48:43.245Z,97110.80
2023-03-17T20:51:16.456Z,97112.60
2023-03-17T20:53:46.218Z,97113.40
2023-03-17T20:56:19.754Z,97111.80
2023-03-17T20:58:48.460Z,97107.00
2023-03-17T21:01:20.449Z,97106.80
2023-03-17T21:03:49.651Z,97102.00
2023-03-17T21:06:18.288Z,97102.00
2023-03-17T21:08:46.211Z,97100.00
2023-03-17T21:11:20.792Z,97100.80
2023-03-17T21:13:47.942Z,97098.60
2023-03-17T21:16:27.707Z,97093.00
2023-03-17T21:18:55.111Z,97100.60
2023-03-17T21:21:23.011Z,97096.20
2023-03-17T21:23:49.728Z,97096.40
2023-03-17T21:26:16.552Z,97090.60
2023-03-17T21:28:43.412Z,97095.60
2023-03-17T21:31:12.420Z,97096.60
2023-03-17T21:33:39.719Z,97090.20
2023-03-17T21:36:07.559Z,97099.20
2023-03-17T21:38:34.544Z,97094.20
2023-03-17T21:41:30.733Z,97096.20
2023-03-17T21:43:58.051Z,97100.20
2023-03-17T21:46:25.598Z,97096.00
2023-03-17T21:48:54.108Z,97091.60
2023-03-17T21:51:20.794Z,97092.20
2023-03-17T21:53:48.177Z,97088.60
2023-03-17T21:56:14.867Z,97092.20
2023-03-17T21:58:41.510Z,97088.20
2023-03-17T22:01:10.055Z,97088.40
2023-03-17T22:03:39.539Z,97091.80
2023-03-17T22:06:07.125Z,97097.20
2023-03-17T22:08:34.588Z,97092.20
2023-03-17T22:11:08.408Z,97098.40
2023-03-17T22:13:36.015Z,97095.40
2023-03-17T22:16:04.500Z,97095.80
2023-03-17T22:18:32.456Z,97098.00
2023-03-17T22:20:59.890Z,97101.00
2023-03-17T22:23:27.792Z,97097.60
2023-03-17T22:25:56.479Z,97101.00
2023-03-17T22:28:24.339Z,97106.20
2023-03-17T22:30:51.507Z,97108.00
2023-03-17T22:33:18.160Z,97106.00
2023-03-17T22:35:44.851Z,97100.80
2023-03-17T22:38:13.022Z,97101.80
2023-03-17T22:40:39.650Z,97097.20
2023-03-17T22:43:07.353Z,97102.40
2023-03-17T22:45:34.193Z,97097.80
2023-03-17T22:48:01.282Z,97097.40
2023-03-17T22:50:28.377Z,97099.60
2023-03-17T22:52:55.019Z,97089.20
2023-03-17T22:55:21.696Z,97095.80
2023-03-17T22:57:48.653Z,97097.00
2023-03-17T23:00:17.569Z,97102.00
2023-03-17T23:02:46.293Z,97100.60
2023-03-17T23:05:13.651Z,97105.00
2023-03-17T23:07:50.493Z,97110.20
2023-03-17T23:10:25.224Z,97106.40
2023-03-17T23:12:52.730Z,97108.40
2023-03-17T23:15:21.056Z,97109.20
2023-03-17T23:17:48.057Z,97102.60
2023-03-17T23:20:15.790Z,97099.80
2023-03-17T23:22:42.959Z,97102.60
2023-03-17T23:25:10.390Z,97106.20
2023-03-17T23:27:37.020Z,97110.00
2023-03-17T23:30:05.739Z,97098.20
2023-03-17T23:32:32.820Z,97097.60
2023-03-17T23:34:59.906Z,97102.40
2023-03-17T23:37:27.413Z,97105.20
2023-03-17T23:39:54.980Z,97108.00
2023-03-17T23:42:22.475Z,97111.20
2023-03-17T23:44:49.210Z,97107.20
2023-03-17T23:47:16.991Z,97107.40
2023-03-17T23:49:43.919Z,97111.60
2023-03-17T23:52:11.399Z,97114.00
2023-03-17T23:54:38.938Z,97115.80
2023-03-17T23:57:06.531Z,97117.80
2023-03-17T23:59:35.448Z,97120.40
